sensor_id;sensor_type;location;lat;lon;timestamp;P1;durP1;ratioP1;P2;durP2;ratioP2
50884;SDS011;36865;-33.406;-70.534;2022-08-19T00:01:44;26.05;;;16.02;;
50884;SDS011;36865;-33.406;-70.534;2022-08-19T00:04:12;23.50;;;14.45;;
50884;SDS011;36865;-33.406;-70.534;2022-08-19T00:06:40;22.90;;;14.15;;
50884;SDS011;36865;-33.406;-70.534;2022-08-19T00:09:09;27.30;;;16.58;;
50884;SDS011;36865;-33.406;-70.534;2022-08-19T00:11:37;30.90;;;18.63;;
50884;SDS011;36865;-33.406;-70.534;2022-08-19T00:14:07;26.70;;;15.60;;
50884;SDS011;36865;-33.406;-70.534;2022-08-19T00:16:35;26.02;;;15.15;;
50884;SDS011;36865;-33.406;-70.534;2022-08-19T00:19:04;29.02;;;18.15;;
50884;SDS011;36865;-33.406;-70.534;2022-08-19T00:21:31;36.85;;;22.38;;
50884;SDS011;36865;-33.406;-70.534;2022-08-19T00:23:57;44.65;;;27.25;;
50884;SDS011;36865;-33.406;-70.534;2022-08-19T00:26:26;38.47;;;24.13;;
50884;SDS011;36865;-33.406;-70.534;2022-08-19T00:28:54;33.35;;;21.10;;
50884;SDS011;36865;-33.406;-70.534;2022-08-19T00:31:20;38.70;;;24.17;;
50884;SDS011;36865;-33.406;-70.534;2022-08-19T00:33:47;33.50;;;21.02;;
50884;SDS011;36865;-33.406;-70.534;2022-08-19T00:36:17;34.03;;;22.20;;
50884;SDS011;36865;-33.406;-70.534;2022-08-19T00:38:43;35.38;;;21.92;;
50884;SDS011;36865;-33.406;-70.534;2022-08-19T00:41:12;35.30;;;21.80;;
50884;SDS011;36865;-33.406;-70.534;2022-08-19T00:43:40;37.80;;;23.13;;
50884;SDS011;36865;-33.406;-70.534;2022-08-19T00:46:07;42.90;;;23.27;;
50884;SDS011;36865;-33.406;-70.534;2022-08-19T00:48:34;39.03;;;24.08;;
50884;SDS011;36865;-33.406;-70.534;2022-08-19T00:51:01;39.75;;;24.95;;
50884;SDS011;36865;-33.406;-70.534;2022-08-19T00:53:29;39.25;;;24.05;;
50884;SDS011;36865;-33.406;-70.534;2022-08-19T00:55:59;39.95;;;24.95;;
50884;SDS011;36865;-33.406;-70.534;2022-08-19T00:58:28;41.20;;;26.13;;
50884;SDS011;36865;-33.406;-70.534;2022-08-19T01:00:56;43.22;;;26.50;;
50884;SDS011;36865;-33.406;-70.534;2022-08-19T01:03:22;39.60;;;25.55;;
50884;SDS011;36865;-33.406;-70.534;2022-08-19T01:05:50;38.10;;;24.15;;
50884;SDS011;36865;-33.406;-70.534;2022-08-19T01:08:18;43.95;;;26.23;;
50884;SDS011;36865;-33.406;-70.534;2022-08-19T01:10:47;43.42;;;27.30;;
50884;SDS011;36865;-33.406;-70.534;2022-08-19T01:13:21;42.67;;;28.25;;
50884;SDS011;36865;-33.406;-70.534;2022-08-19T01:15:55;41.70;;;26.08;;
50884;SDS011;36865;-33.406;-70.534;2022-08-19T01:18:24;46.10;;;28.77;;
50884;SDS011;36865;-33.406;-70.534;2022-08-19T01:20:51;46.80;;;29.85;;
50884;SDS011;36865;-33.406;-70.534;2022-08-19T01:23:19;55.17;;;32.97;;
50884;SDS011;36865;-33.406;-70.534;2022-08-19T01:25:47;46.33;;;28.17;;
50884;SDS011;36865;-33.406;-70.534;2022-08-19T01:30:44;53.60;;;31.88;;
50884;SDS011;36865;-33.406;-70.534;2022-08-19T01:33:11;50.97;;;32.03;;
50884;SDS011;36865;-33.406;-70.534;2022-08-19T01:35:40;58.22;;;34.05;;
50884;SDS011;36865;-33.406;-70.534;2022-08-19T01:38:08;55.85;;;34.88;;
50884;SDS011;36865;-33.406;-70.534;2022-08-19T01:40:38;53.05;;;33.10;;
50884;SDS011;36865;-33.406;-70.534;2022-08-19T01:43:05;45.33;;;28.33;;
50884;SDS011;36865;-33.406;-70.534;2022-08-19T01:45:33;41.13;;;26.17;;
50884;SDS011;36865;-33.406;-70.534;2022-08-19T01:48:00;41.67;;;25.40;;
50884;SDS011;36865;-33.406;-70.534;2022-08-19T01:50:27;37.88;;;24.08;;
50884;SDS011;36865;-33.406;-70.534;2022-08-19T01:52:54;35.38;;;22.40;;
50884;SDS011;36865;-33.406;-70.534;2022-08-19T01:55:21;36.13;;;21.40;;
50884;SDS011;36865;-33.406;-70.534;2022-08-19T01:57:50;36.47;;;22.17;;
50884;SDS011;36865;-33.406;-70.534;2022-08-19T02:00:20;35.22;;;21.27;;
50884;SDS011;36865;-33.406;-70.534;2022-08-19T02:02:48;35.42;;;21.77;;
50884;SDS011;36865;-33.406;-70.534;2022-08-19T02:05:14;31.58;;;20.38;;
50884;SDS011;36865;-33.406;-70.534;2022-08-19T02:07:43;36.60;;;22.58;;
50884;SDS011;36865;-33.406;-70.534;2022-08-19T02:10:12;40.15;;;23.65;;
50884;SDS011;36865;-33.406;-70.534;2022-08-19T02:12:41;34.70;;;21.52;;
50884;SDS011;36865;-33.406;-70.534;2022-08-19T02:15:08;36.40;;;22.48;;
50884;SDS011;36865;-33.406;-70.534;2022-08-19T02:17:35;37.88;;;23.23;;
50884;SDS011;36865;-33.406;-70.534;2022-08-19T02:20:02;45.75;;;25.50;;
50884;SDS011;36865;-33.406;-70.534;2022-08-19T02:22:29;44.05;;;26.02;;
50884;SDS011;36865;-33.406;-70.534;2022-08-19T02:24:56;45.45;;;27.35;;
50884;SDS011;36865;-33.406;-70.534;2022-08-19T02:27:22;38.80;;;23.65;;
50884;SDS011;36865;-33.406;-70.534;2022-08-19T02:29:49;41.78;;;25.50;;
50884;SDS011;36865;-33.406;-70.534;2022-08-19T02:32:17;40.00;;;23.75;;
50884;SDS011;36865;-33.406;-70.534;2022-08-19T02:34:47;42.23;;;25.27;;
50884;SDS011;36865;-33.406;-70.534;2022-08-19T02:37:14;44.20;;;26.85;;
50884;SDS011;36865;-33.406;-70.534;2022-08-19T02:39:58;40.85;;;25.77;;
50884;SDS011;36865;-33.406;-70.534;2022-08-19T02:42:25;35.08;;;21.92;;
50884;SDS011;36865;-33.406;-70.534;2022-08-19T02:44:51;30.73;;;18.65;;
50884;SDS011;36865;-33.406;-70.534;2022-08-19T02:47:19;27.67;;;17.02;;
50884;SDS011;36865;-33.406;-70.534;2022-08-19T02:49:46;29.15;;;16.35;;
50884;SDS011;36865;-33.406;-70.534;2022-08-19T02:52:15;27.08;;;16.17;;
50884;SDS011;36865;-33.406;-70.534;2022-08-19T02:54:42;25.58;;;15.35;;
50884;SDS011;36865;-33.406;-70.534;2022-08-19T02:57:09;30.70;;;18.20;;
50884;SDS011;36865;-33.406;-70.534;2022-08-19T02:59:36;35.00;;;21.13;;
50884;SDS011;36865;-33.406;-70.534;2022-08-19T03:02:02;34.30;;;20.85;;
50884;SDS011;36865;-33.406;-70.534;2022-08-19T03:04:29;30.90;;;18.77;;
50884;SDS011;36865;-33.406;-70.534;2022-08-19T03:06:56;30.95;;;18.17;;
50884;SDS011;36865;-33.406;-70.534;2022-08-19T03:09:22;36.13;;;22.23;;
50884;SDS011;36865;-33.406;-70.534;2022-08-19T03:11:49;39.83;;;23.00;;
50884;SDS011;36865;-33.406;-70.534;2022-08-19T03:14:15;36.75;;;21.98;;
50884;SDS011;36865;-33.406;-70.534;2022-08-19T03:16:44;32.15;;;18.77;;
50884;SDS011;36865;-33.406;-70.534;2022-08-19T03:19:14;35.35;;;20.88;;
50884;SDS011;36865;-33.406;-70.534;2022-08-19T03:21:43;35.05;;;19.85;;
50884;SDS011;36865;-33.406;-70.534;2022-08-19T03:24:10;30.17;;;18.08;;
50884;SDS011;36865;-33.406;-70.534;2022-08-19T03:26:39;35.58;;;21.60;;
50884;SDS011;36865;-33.406;-70.534;2022-08-19T03:29:06;38.97;;;23.52;;
50884;SDS011;36865;-33.406;-70.534;2022-08-19T03:31:36;38.47;;;22.70;;
50884;SDS011;36865;-33.406;-70.534;2022-08-19T03:34:04;36.03;;;21.33;;
50884;SDS011;36865;-33.406;-70.534;2022-08-19T03:36:30;34.80;;;20.38;;
50884;SDS011;36865;-33.406;-70.534;2022-08-19T03:38:58;31.60;;;18.27;;
50884;SDS011;36865;-33.406;-70.534;2022-08-19T03:41:32;27.90;;;16.95;;
50884;SDS011;36865;-33.406;-70.534;2022-08-19T03:44:02;30.00;;;17.63;;
50884;SDS011;36865;-33.406;-70.534;2022-08-19T03:46:30;29.38;;;17.25;;
50884;SDS011;36865;-33.406;-70.534;2022-08-19T03:49:00;32.67;;;19.33;;
50884;SDS011;36865;-33.406;-70.534;2022-08-19T03:51:38;31.73;;;19.00;;
50884;SDS011;36865;-33.406;-70.534;2022-08-19T03:54:06;29.55;;;18.05;;
50884;SDS011;36865;-33.406;-70.534;2022-08-19T03:56:34;33.38;;;20.08;;
50884;SDS011;36865;-33.406;-70.534;2022-08-19T03:59:02;30.63;;;17.65;;
50884;SDS011;36865;-33.406;-70.534;2022-08-19T04:01:30;32.38;;;18.40;;
50884;SDS011;36865;-33.406;-70.534;2022-08-19T04:03:57;31.20;;;18.45;;
50884;SDS011;36865;-33.406;-70.534;2022-08-19T04:06:27;31.52;;;18.42;;
50884;SDS011;36865;-33.406;-70.534;2022-08-19T04:08:56;33.08;;;19.65;;
50884;SDS011;36865;-33.406;-70.534;2022-08-19T04:11:25;34.88;;;20.33;;
50884;SDS011;36865;-33.406;-70.534;2022-08-19T04:13:53;30.63;;;17.85;;
50884;SDS011;36865;-33.406;-70.534;2022-08-19T04:16:22;33.65;;;19.95;;
50884;SDS011;36865;-33.406;-70.534;2022-08-19T04:18:50;33.80;;;20.33;;
50884;SDS011;36865;-33.406;-70.534;2022-08-19T04:21:18;34.08;;;19.45;;
50884;SDS011;36865;-33.406;-70.534;2022-08-19T04:23:50;37.65;;;21.33;;
50884;SDS011;36865;-33.406;-70.534;2022-08-19T04:26:19;38.47;;;21.60;;
50884;SDS011;36865;-33.406;-70.534;2022-08-19T04:28:47;37.00;;;21.25;;
50884;SDS011;36865;-33.406;-70.534;2022-08-19T04:31:15;35.38;;;20.48;;
50884;SDS011;36865;-33.406;-70.534;2022-08-19T04:33:44;31.85;;;18.35;;
50884;SDS011;36865;-33.406;-70.534;2022-08-19T04:36:17;34.30;;;20.00;;
50884;SDS011;36865;-33.406;-70.534;2022-08-19T04:38:46;37.97;;;22.17;;
50884;SDS011;36865;-33.406;-70.534;2022-08-19T04:41:13;32.03;;;18.40;;
50884;SDS011;36865;-33.406;-70.534;2022-08-19T04:43:59;29.67;;;17.42;;
50884;SDS011;36865;-33.406;-70.534;2022-08-19T04:46:25;30.52;;;18.25;;
50884;SDS011;36865;-33.406;-70.534;2022-08-19T04:48:54;35.20;;;19.80;;
50884;SDS011;36865;-33.406;-70.534;2022-08-19T04:51:22;34.50;;;20.65;;
50884;SDS011;36865;-33.406;-70.534;2022-08-19T04:53:49;33.58;;;18.40;;
50884;SDS011;36865;-33.406;-70.534;2022-08-19T04:56:17;33.28;;;18.27;;
50884;SDS011;36865;-33.406;-70.534;2022-08-19T04:58:46;32.58;;;17.95;;
50884;SDS011;36865;-33.406;-70.534;2022-08-19T05:01:46;26.75;;;15.05;;
50884;SDS011;36865;-33.406;-70.534;2022-08-19T05:04:05;21.60;;;12.07;;
50884;SDS011;36865;-33.406;-70.534;2022-08-19T05:06:33;24.00;;;11.98;;
50884;SDS011;36865;-33.406;-70.534;2022-08-19T05:09:00;27.88;;;13.57;;
50884;SDS011;36865;-33.406;-70.534;2022-08-19T05:11:29;24.20;;;13.13;;
50884;SDS011;36865;-33.406;-70.534;2022-08-19T05:13:57;24.75;;;12.52;;
50884;SDS011;36865;-33.406;-70.534;2022-08-19T05:16:24;22.65;;;11.70;;
50884;SDS011;36865;-33.406;-70.534;2022-08-19T05:18:52;23.50;;;12.23;;
50884;SDS011;36865;-33.406;-70.534;2022-08-19T05:21:38;23.55;;;12.23;;
50884;SDS011;36865;-33.406;-70.534;2022-08-19T05:24:23;26.27;;;13.45;;
50884;SDS011;36865;-33.406;-70.534;2022-08-19T05:26:51;25.45;;;13.80;;
50884;SDS011;36865;-33.406;-70.534;2022-08-19T05:29:19;21.02;;;11.13;;
50884;SDS011;36865;-33.406;-70.534;2022-08-19T05:31:47;19.40;;;10.40;;
50884;SDS011;36865;-33.406;-70.534;2022-08-19T05:34:17;18.38;;;9.68;;
50884;SDS011;36865;-33.406;-70.534;2022-08-19T05:36:50;21.40;;;10.98;;
50884;SDS011;36865;-33.406;-70.534;2022-08-19T05:39:23;24.00;;;12.65;;
50884;SDS011;36865;-33.406;-70.534;2022-08-19T05:41:54;25.70;;;13.82;;
50884;SDS011;36865;-33.406;-70.534;2022-08-19T05:44:27;26.77;;;14.20;;
50884;SDS011;36865;-33.406;-70.534;2022-08-19T05:47:00;26.88;;;14.35;;
50884;SDS011;36865;-33.406;-70.534;2022-08-19T05:49:30;30.42;;;15.60;;
50884;SDS011;36865;-33.406;-70.534;2022-08-19T05:51:57;28.15;;;14.98;;
50884;SDS011;36865;-33.406;-70.534;2022-08-19T05:54:27;30.60;;;16.57;;
50884;SDS011;36865;-33.406;-70.534;2022-08-19T05:56:54;30.58;;;16.67;;
50884;SDS011;36865;-33.406;-70.534;2022-08-19T05:59:20;30.38;;;16.67;;
50884;SDS011;36865;-33.406;-70.534;2022-08-19T06:01:48;29.00;;;15.32;;
50884;SDS011;36865;-33.406;-70.534;2022-08-19T06:04:17;29.05;;;16.05;;
50884;SDS011;36865;-33.406;-70.534;2022-08-19T06:06:45;30.50;;;16.33;;
50884;SDS011;36865;-33.406;-70.534;2022-08-19T06:09:13;30.17;;;16.10;;
50884;SDS011;36865;-33.406;-70.534;2022-08-19T06:11:41;28.70;;;15.02;;
50884;SDS011;36865;-33.406;-70.534;2022-08-19T06:14:16;27.27;;;14.43;;
50884;SDS011;36865;-33.406;-70.534;2022-08-19T06:16:45;29.77;;;15.50;;
50884;SDS011;36865;-33.406;-70.534;2022-08-19T06:19:14;24.63;;;13.10;;
50884;SDS011;36865;-33.406;-70.534;2022-08-19T06:21:43;21.20;;;10.70;;
50884;SDS011;36865;-33.406;-70.534;2022-08-19T06:24:10;18.95;;;9.68;;
50884;SDS011;36865;-33.406;-70.534;2022-08-19T06:26:40;17.75;;;8.38;;
50884;SDS011;36865;-33.406;-70.534;2022-08-19T06:29:10;17.42;;;7.85;;
50884;SDS011;36865;-33.406;-70.534;2022-08-19T06:31:40;15.23;;;7.07;;
50884;SDS011;36865;-33.406;-70.534;2022-08-19T06:34:10;15.80;;;7.20;;
50884;SDS011;36865;-33.406;-70.534;2022-08-19T06:36:38;13.90;;;6.32;;
50884;SDS011;36865;-33.406;-70.534;2022-08-19T06:39:10;15.77;;;6.75;;
50884;SDS011;36865;-33.406;-70.534;2022-08-19T06:41:39;15.55;;;6.40;;
50884;SDS011;36865;-33.406;-70.534;2022-08-19T06:44:07;15.18;;;6.93;;
50884;SDS011;36865;-33.406;-70.534;2022-08-19T06:46:35;14.35;;;6.10;;
50884;SDS011;36865;-33.406;-70.534;2022-08-19T06:49:02;13.32;;;5.70;;
50884;SDS011;36865;-33.406;-70.534;2022-08-19T06:51:30;15.25;;;6.53;;
50884;SDS011;36865;-33.406;-70.534;2022-08-19T06:53:57;18.45;;;7.70;;
50884;SDS011;36865;-33.406;-70.534;2022-08-19T06:56:26;17.75;;;8.32;;
50884;SDS011;36865;-33.406;-70.534;2022-08-19T06:59:03;19.70;;;9.35;;
50884;SDS011;36865;-33.406;-70.534;2022-08-19T07:01:33;22.85;;;10.43;;
50884;SDS011;36865;-33.406;-70.534;2022-08-19T07:04:05;21.15;;;10.40;;
50884;SDS011;36865;-33.406;-70.534;2022-08-19T07:06:34;20.02;;;10.10;;
50884;SDS011;36865;-33.406;-70.534;2022-08-19T07:09:01;18.17;;;9.10;;
50884;SDS011;36865;-33.406;-70.534;2022-08-19T07:11:29;17.45;;;8.88;;
50884;SDS011;36865;-33.406;-70.534;2022-08-19T07:13:56;19.30;;;9.55;;
50884;SDS011;36865;-33.406;-70.534;2022-08-19T07:16:22;19.63;;;10.10;;
50884;SDS011;36865;-33.406;-70.534;2022-08-19T07:18:49;21.52;;;11.30;;
50884;SDS011;36865;-33.406;-70.534;2022-08-19T07:21:18;28.02;;;14.88;;
50884;SDS011;36865;-33.406;-70.534;2022-08-19T07:23:47;28.85;;;14.95;;
50884;SDS011;36865;-33.406;-70.534;2022-08-19T07:26:19;25.45;;;13.27;;
50884;SDS011;36865;-33.406;-70.534;2022-08-19T07:28:51;25.40;;;13.00;;
50884;SDS011;36865;-33.406;-70.534;2022-08-19T07:31:19;21.88;;;10.77;;
50884;SDS011;36865;-33.406;-70.534;2022-08-19T07:33:49;20.08;;;9.70;;
50884;SDS011;36865;-33.406;-70.534;2022-08-19T07:36:17;18.38;;;8.65;;
50884;SDS011;36865;-33.406;-70.534;2022-08-19T07:38:46;18.55;;;8.20;;
50884;SDS011;36865;-33.406;-70.534;2022-08-19T07:41:15;16.38;;;8.25;;
50884;SDS011;36865;-33.406;-70.534;2022-08-19T07:43:50;16.45;;;7.72;;
50884;SDS011;36865;-33.406;-70.534;2022-08-19T07:46:18;15.65;;;7.38;;
50884;SDS011;36865;-33.406;-70.534;2022-08-19T07:48:47;15.98;;;6.75;;
50884;SDS011;36865;-33.406;-70.534;2022-08-19T07:51:17;12.65;;;5.72;;
50884;SDS011;36865;-33.406;-70.534;2022-08-19T07:53:45;13.65;;;5.72;;
50884;SDS011;36865;-33.406;-70.534;2022-08-19T07:56:12;12.32;;;5.30;;
50884;SDS011;36865;-33.406;-70.534;2022-08-19T07:58:41;14.02;;;6.22;;
50884;SDS011;36865;-33.406;-70.534;2022-08-19T08:01:10;14.98;;;7.00;;
50884;SDS011;36865;-33.406;-70.534;2022-08-19T08:03:40;17.13;;;9.10;;
50884;SDS011;36865;-33.406;-70.534;2022-08-19T08:06:26;20.38;;;10.10;;
50884;SDS011;36865;-33.406;-70.534;2022-08-19T08:09:11;26.55;;;14.57;;
50884;SDS011;36865;-33.406;-70.534;2022-08-19T08:12:26;24.42;;;14.20;;
50884;SDS011;36865;-33.406;-70.534;2022-08-19T08:17:07;20.75;;;11.35;;
50884;SDS011;36865;-33.406;-70.534;2022-08-19T08:19:34;18.13;;;9.43;;
50884;SDS011;36865;-33.406;-70.534;2022-08-19T08:22:02;22.42;;;11.50;;
50884;SDS011;36865;-33.406;-70.534;2022-08-19T08:24:29;21.08;;;11.57;;
50884;SDS011;36865;-33.406;-70.534;2022-08-19T08:26:57;21.15;;;11.98;;
50884;SDS011;36865;-33.406;-70.534;2022-08-19T08:29:28;21.90;;;12.13;;
50884;SDS011;36865;-33.406;-70.534;2022-08-19T08:31:55;22.05;;;11.25;;
50884;SDS011;36865;-33.406;-70.534;2022-08-19T08:34:22;19.27;;;10.27;;
50884;SDS011;36865;-33.406;-70.534;2022-08-19T08:36:49;20.02;;;10.57;;
50884;SDS011;36865;-33.406;-70.534;2022-08-19T08:39:18;21.33;;;11.10;;
50884;SDS011;36865;-33.406;-70.534;2022-08-19T08:42:05;19.92;;;10.98;;
50884;SDS011;36865;-33.406;-70.534;2022-08-19T08:47:03;19.20;;;9.80;;
50884;SDS011;36865;-33.406;-70.534;2022-08-19T08:52:30;17.23;;;9.15;;
50884;SDS011;36865;-33.406;-70.534;2022-08-19T08:55:08;16.98;;;8.85;;
50884;SDS011;36865;-33.406;-70.534;2022-08-19T09:00:22;16.73;;;7.90;;
50884;SDS011;36865;-33.406;-70.534;2022-08-19T09:02:56;16.42;;;8.77;;
50884;SDS011;36865;-33.406;-70.534;2022-08-19T09:05:26;18.40;;;9.45;;
50884;SDS011;36865;-33.406;-70.534;2022-08-19T09:10:45;20.05;;;10.43;;
50884;SDS011;36865;-33.406;-70.534;2022-08-19T09:16:23;21.85;;;11.35;;
50884;SDS011;36865;-33.406;-70.534;2022-08-19T09:19:17;19.35;;;9.43;;
50884;SDS011;36865;-33.406;-70.534;2022-08-19T09:21:29;17.27;;;8.60;;
50884;SDS011;36865;-33.406;-70.534;2022-08-19T09:23:55;14.48;;;6.60;;
50884;SDS011;36865;-33.406;-70.534;2022-08-19T09:26:23;14.52;;;6.22;;
50884;SDS011;36865;-33.406;-70.534;2022-08-19T09:28:51;12.63;;;5.30;;
50884;SDS011;36865;-33.406;-70.534;2022-08-19T09:31:19;11.95;;;4.50;;
50884;SDS011;36865;-33.406;-70.534;2022-08-19T09:33:50;11.30;;;4.75;;
50884;SDS011;36865;-33.406;-70.534;2022-08-19T09:36:19;12.05;;;5.10;;
50884;SDS011;36865;-33.406;-70.534;2022-08-19T09:38:47;14.15;;;6.15;;
50884;SDS011;36865;-33.406;-70.534;2022-08-19T09:41:15;18.50;;;6.70;;
50884;SDS011;36865;-33.406;-70.534;2022-08-19T09:43:45;14.32;;;6.40;;
50884;SDS011;36865;-33.406;-70.534;2022-08-19T09:46:13;16.80;;;6.72;;
50884;SDS011;36865;-33.406;-70.534;2022-08-19T09:48:42;17.05;;;7.30;;
50884;SDS011;36865;-33.406;-70.534;2022-08-19T09:51:13;17.15;;;7.38;;
50884;SDS011;36865;-33.406;-70.534;2022-08-19T09:53:41;17.45;;;7.75;;
50884;SDS011;36865;-33.406;-70.534;2022-08-19T09:56:10;14.18;;;6.65;;
50884;SDS011;36865;-33.406;-70.534;2022-08-19T09:58:37;16.88;;;7.25;;
50884;SDS011;36865;-33.406;-70.534;2022-08-19T10:01:05;14.82;;;6.22;;
50884;SDS011;36865;-33.406;-70.534;2022-08-19T10:03:33;13.73;;;5.60;;
50884;SDS011;36865;-33.406;-70.534;2022-08-19T10:06:01;13.00;;;5.40;;
50884;SDS011;36865;-33.406;-70.534;2022-08-19T10:08:30;12.48;;;5.30;;
50884;SDS011;36865;-33.406;-70.534;2022-08-19T10:10:58;12.23;;;5.47;;
50884;SDS011;36865;-33.406;-70.534;2022-08-19T10:13:28;10.95;;;4.53;;
50884;SDS011;36865;-33.406;-70.534;2022-08-19T10:15:56;9.55;;;4.15;;
50884;SDS011;36865;-33.406;-70.534;2022-08-19T10:18:29;10.15;;;4.15;;
50884;SDS011;36865;-33.406;-70.534;2022-08-19T10:21:07;7.63;;;3.63;;
50884;SDS011;36865;-33.406;-70.534;2022-08-19T10:23:36;7.90;;;3.42;;
50884;SDS011;36865;-33.406;-70.534;2022-08-19T10:26:04;8.85;;;3.70;;
50884;SDS011;36865;-33.406;-70.534;2022-08-19T10:28:32;8.20;;;3.60;;
50884;SDS011;36865;-33.406;-70.534;2022-08-19T10:31:12;7.35;;;3.38;;
50884;SDS011;36865;-33.406;-70.534;2022-08-19T10:33:45;7.70;;;3.60;;
50884;SDS011;36865;-33.406;-70.534;2022-08-19T10:36:15;8.95;;;3.72;;
50884;SDS011;36865;-33.406;-70.534;2022-08-19T10:41:11;7.75;;;3.40;;
50884;SDS011;36865;-33.406;-70.534;2022-08-19T10:43:44;8.73;;;3.42;;
50884;SDS011;36865;-33.406;-70.534;2022-08-19T10:46:12;6.85;;;3.30;;
50884;SDS011;36865;-33.406;-70.534;2022-08-19T10:48:41;6.40;;;3.20;;
50884;SDS011;36865;-33.406;-70.534;2022-08-19T10:51:08;8.20;;;3.50;;
50884;SDS011;36865;-33.406;-70.534;2022-08-19T10:53:54;7.95;;;3.25;;
50884;SDS011;36865;-33.406;-70.534;2022-08-19T10:56:21;6.13;;;2.97;;
50884;SDS011;36865;-33.406;-70.534;2022-08-19T10:59:06;7.20;;;2.95;;
50884;SDS011;36865;-33.406;-70.534;2022-08-19T11:01:33;6.07;;;2.95;;
50884;SDS011;36865;-33.406;-70.534;2022-08-19T11:04:01;5.45;;;2.90;;
50884;SDS011;36865;-33.406;-70.534;2022-08-19T11:06:31;8.85;;;3.60;;
50884;SDS011;36865;-33.406;-70.534;2022-08-19T11:08:58;6.82;;;3.33;;
50884;SDS011;36865;-33.406;-70.534;2022-08-19T11:11:25;6.50;;;2.80;;
50884;SDS011;36865;-33.406;-70.534;2022-08-19T11:13:53;5.20;;;2.80;;
50884;SDS011;36865;-33.406;-70.534;2022-08-19T11:16:21;4.47;;;2.50;;
50884;SDS011;36865;-33.406;-70.534;2022-08-19T11:18:51;4.75;;;2.60;;
50884;SDS011;36865;-33.406;-70.534;2022-08-19T11:21:23;5.63;;;2.70;;
50884;SDS011;36865;-33.406;-70.534;2022-08-19T11:24:06;6.38;;;2.80;;
50884;SDS011;36865;-33.406;-70.534;2022-08-19T11:26:38;5.97;;;2.80;;
50884;SDS011;36865;-33.406;-70.534;2022-08-19T11:29:06;5.88;;;2.83;;
50884;SDS011;36865;-33.406;-70.534;2022-08-19T11:31:37;6.68;;;2.80;;
50884;SDS011;36865;-33.406;-70.534;2022-08-19T11:34:05;8.60;;;3.25;;
50884;SDS011;36865;-33.406;-70.534;2022-08-19T11:36:33;8.05;;;3.35;;
50884;SDS011;36865;-33.406;-70.534;2022-08-19T11:39:02;8.10;;;3.35;;
50884;SDS011;36865;-33.406;-70.534;2022-08-19T11:41:30;6.57;;;2.78;;
50884;SDS011;36865;-33.406;-70.534;2022-08-19T11:43:56;7.90;;;3.10;;
50884;SDS011;36865;-33.406;-70.534;2022-08-19T11:46:24;8.50;;;3.00;;
50884;SDS011;36865;-33.406;-70.534;2022-08-19T11:48:55;6.30;;;3.05;;
50884;SDS011;36865;-33.406;-70.534;2022-08-19T11:51:23;6.57;;;2.65;;
50884;SDS011;36865;-33.406;-70.534;2022-08-19T11:53:53;4.20;;;2.45;;
50884;SDS011;36865;-33.406;-70.534;2022-08-19T11:56:21;7.15;;;3.28;;
50884;SDS011;36865;-33.406;-70.534;2022-08-19T11:58:49;5.13;;;2.88;;
50884;SDS011;36865;-33.406;-70.534;2022-08-19T12:01:17;6.50;;;2.72;;
50884;SDS011;36865;-33.406;-70.534;2022-08-19T12:03:46;5.57;;;2.38;;
50884;SDS011;36865;-33.406;-70.534;2022-08-19T12:06:15;6.60;;;2.78;;
50884;SDS011;36865;-33.406;-70.534;2022-08-19T12:08:49;4.82;;;2.60;;
50884;SDS011;36865;-33.406;-70.534;2022-08-19T12:11:15;5.57;;;2.60;;
50884;SDS011;36865;-33.406;-70.534;2022-08-19T12:13:44;6.68;;;2.53;;
50884;SDS011;36865;-33.406;-70.534;2022-08-19T12:16:16;3.67;;;2.35;;
50884;SDS011;36865;-33.406;-70.534;2022-08-19T12:18:44;3.63;;;2.00;;
50884;SDS011;36865;-33.406;-70.534;2022-08-19T12:21:14;5.93;;;2.53;;
50884;SDS011;36865;-33.406;-70.534;2022-08-19T12:23:42;7.53;;;3.10;;
50884;SDS011;36865;-33.406;-70.534;2022-08-19T12:26:10;7.93;;;2.92;;
50884;SDS011;36865;-33.406;-70.534;2022-08-19T12:28:37;8.27;;;3.72;;
50884;SDS011;36865;-33.406;-70.534;2022-08-19T12:31:04;8.15;;;3.50;;
50884;SDS011;36865;-33.406;-70.534;2022-08-19T12:33:31;9.35;;;4.10;;
50884;SDS011;36865;-33.406;-70.534;2022-08-19T12:36:02;9.55;;;4.00;;
50884;SDS011;36865;-33.406;-70.534;2022-08-19T12:38:30;9.52;;;3.95;;
50884;SDS011;36865;-33.406;-70.534;2022-08-19T12:40:58;7.22;;;3.30;;
50884;SDS011;36865;-33.406;-70.534;2022-08-19T12:43:24;6.55;;;3.22;;
50884;SDS011;36865;-33.406;-70.534;2022-08-19T12:45:51;8.32;;;3.70;;
50884;SDS011;36865;-33.406;-70.534;2022-08-19T12:48:18;9.98;;;4.38;;
50884;SDS011;36865;-33.406;-70.534;2022-08-19T12:50:45;9.88;;;4.03;;
50884;SDS011;36865;-33.406;-70.534;2022-08-19T12:53:12;9.68;;;3.78;;
50884;SDS011;36865;-33.406;-70.534;2022-08-19T12:55:39;9.70;;;4.03;;
50884;SDS011;36865;-33.406;-70.534;2022-08-19T12:58:06;11.80;;;4.30;;
50884;SDS011;36865;-33.406;-70.534;2022-08-19T13:00:32;10.80;;;4.90;;
50884;SDS011;36865;-33.406;-70.534;2022-08-19T13:02:59;11.75;;;4.95;;
50884;SDS011;36865;-33.406;-70.534;2022-08-19T13:05:28;12.60;;;4.90;;
50884;SDS011;36865;-33.406;-70.534;2022-08-19T13:07:57;11.45;;;4.70;;
50884;SDS011;36865;-33.406;-70.534;2022-08-19T13:10:26;12.02;;;4.40;;
50884;SDS011;36865;-33.406;-70.534;2022-08-19T13:12:55;10.30;;;4.32;;
50884;SDS011;36865;-33.406;-70.534;2022-08-19T13:15:24;11.32;;;4.47;;
50884;SDS011;36865;-33.406;-70.534;2022-08-19T13:17:54;11.15;;;4.57;;
50884;SDS011;36865;-33.406;-70.534;2022-08-19T13:20:21;11.32;;;4.55;;
50884;SDS011;36865;-33.406;-70.534;2022-08-19T13:22:48;13.00;;;4.97;;
50884;SDS011;36865;-33.406;-70.534;2022-08-19T13:25:15;11.63;;;4.97;;
50884;SDS011;36865;-33.406;-70.534;2022-08-19T13:27:44;12.23;;;4.35;;
50884;SDS011;36865;-33.406;-70.534;2022-08-19T13:30:13;10.45;;;4.32;;
50884;SDS011;36865;-33.406;-70.534;2022-08-19T13:32:59;7.38;;;3.50;;
50884;SDS011;36865;-33.406;-70.534;2022-08-19T13:35:49;10.80;;;3.60;;
50884;SDS011;36865;-33.406;-70.534;2022-08-19T13:38:22;7.55;;;3.17;;
50884;SDS011;36865;-33.406;-70.534;2022-08-19T13:40:50;8.57;;;3.58;;
50884;SDS011;36865;-33.406;-70.534;2022-08-19T13:45:53;9.18;;;3.58;;
50884;SDS011;36865;-33.406;-70.534;2022-08-19T13:48:23;9.33;;;3.77;;
50884;SDS011;36865;-33.406;-70.534;2022-08-19T13:50:51;6.68;;;3.00;;
50884;SDS011;36865;-33.406;-70.534;2022-08-19T13:53:19;6.10;;;2.83;;
50884;SDS011;36865;-33.406;-70.534;2022-08-19T13:55:45;5.13;;;2.50;;
50884;SDS011;36865;-33.406;-70.534;2022-08-19T13:58:12;5.90;;;2.60;;
50884;SDS011;36865;-33.406;-70.534;2022-08-19T14:00:41;4.38;;;2.45;;
50884;SDS011;36865;-33.406;-70.534;2022-08-19T14:03:09;5.60;;;2.70;;
50884;SDS011;36865;-33.406;-70.534;2022-08-19T14:05:36;4.70;;;2.45;;
50884;SDS011;36865;-33.406;-70.534;2022-08-19T14:08:03;3.03;;;2.03;;
50884;SDS011;36865;-33.406;-70.534;2022-08-19T14:10:30;4.03;;;2.10;;
50884;SDS011;36865;-33.406;-70.534;2022-08-19T14:12:58;5.03;;;2.17;;
50884;SDS011;36865;-33.406;-70.534;2022-08-19T14:15:26;2.88;;;1.83;;
50884;SDS011;36865;-33.406;-70.534;2022-08-19T14:17:53;3.25;;;2.10;;
50884;SDS011;36865;-33.406;-70.534;2022-08-19T14:20:21;3.33;;;2.05;;
50884;SDS011;36865;-33.406;-70.534;2022-08-19T14:22:48;3.65;;;2.10;;
50884;SDS011;36865;-33.406;-70.534;2022-08-19T14:25:19;3.97;;;2.38;;
50884;SDS011;36865;-33.406;-70.534;2022-08-19T14:27:50;5.28;;;2.50;;
50884;SDS011;36865;-33.406;-70.534;2022-08-19T14:30:18;6.30;;;2.60;;